VIV4110 MMMY-MMHO
Flight info
| Callsign | VIV4110 |
|---|---|
| Flight time | N/A |
| Altitude | 34000 |
| Route | GRALA1A GRALA DCT ANEGI DCT PELNI DCT IGTAN IGTAN1C |
| Aircraft | A320/M-SDE3FGHIRWY/LB1 |
Departure
| Time | 2026-04-25 18:03 |
|---|---|
| Airport | Monterrey International Airport (MMMY) |
Arrival
| Time | N/A |
|---|---|
| Airport | General Ignacio L. Pesqueira International Airport (MMHO) |
| Time | Latitude | Longitude | Altitude | Speed | Heading |
|---|---|---|---|---|---|
| 2026-04-25 17:27 | 25.78041 | -100.11818 | 1331 ft | 0 kts | 212° |
| 2026-04-25 17:54 | 25.78054 | -100.11810 | 1333 ft | 4 kts | 211° |
| 2026-04-25 17:54 | 25.78075 | -100.11793 | 1333 ft | 4 kts | 239° |
| 2026-04-25 17:54 | 25.78079 | -100.11767 | 1331 ft | 4 kts | 295° |
| 2026-04-25 17:55 | 25.78074 | -100.11756 | 1334 ft | 1 kts | 302° |
| 2026-04-25 17:59 | 25.78075 | -100.11757 | 1334 ft | 1 kts | 302° |
| 2026-04-25 18:00 | 25.78090 | -100.11785 | 1331 ft | 5 kts | 302° |
| 2026-04-25 18:00 | 25.78112 | -100.11825 | 1331 ft | 7 kts | 302° |
| 2026-04-25 18:00 | 25.78140 | -100.11872 | 1331 ft | 7 kts | 315° |
| 2026-04-25 18:00 | 25.78185 | -100.11861 | 1331 ft | 7 kts | 19° |
| 2026-04-25 18:01 | 25.78234 | -100.11834 | 1331 ft | 9 kts | 31° |
| 2026-04-25 18:01 | 25.78289 | -100.11793 | 1331 ft | 10 kts | 39° |
| 2026-04-25 18:01 | 25.78352 | -100.11746 | 1331 ft | 12 kts | 33° |
| 2026-04-25 18:01 | 25.78398 | -100.11681 | 1331 ft | 12 kts | 109° |
| 2026-04-25 18:02 | 25.78357 | -100.11595 | 1331 ft | 14 kts | 120° |
| 2026-04-25 18:02 | 25.78268 | -100.11432 | 1331 ft | 49 kts | 122° |
| 2026-04-25 18:02 | 25.77973 | -100.10902 | 1331 ft | 109 kts | 121° |
| 2026-04-25 18:02 | 25.77494 | -100.10036 | 1331 ft | 153 kts | 124° |
| 2026-04-25 18:03 | 25.76879 | -100.08936 | 1601 ft | 171 kts | 121° |
| 2026-04-25 18:03 | 25.76235 | -100.07823 | 2273 ft | 172 kts | 122° |
| 2026-04-25 18:03 | 25.75602 | -100.06672 | 2760 ft | 181 kts | 121° |
| 2026-04-25 18:03 | 25.74910 | -100.05405 | 2956 ft | 203 kts | 121° |
| 2026-04-25 18:04 | 25.74134 | -100.03985 | 3134 ft | 227 kts | 121° |
| 2026-04-25 18:04 | 25.73274 | -100.02411 | 3404 ft | 251 kts | 121° |
| 2026-04-25 18:04 | 25.72334 | -100.00690 | 3860 ft | 267 kts | 121° |
| 2026-04-25 18:04 | 25.71301 | -99.98960 | 4532 ft | 273 kts | 133° |
| 2026-04-25 18:05 | 25.69686 | -99.97868 | 5200 ft | 278 kts | 167° |
| 2026-04-25 18:05 | 25.67791 | -99.97943 | 5879 ft | 281 kts | 200° |
| 2026-04-25 18:05 | 25.66206 | -99.99172 | 6549 ft | 283 kts | 233° |
| 2026-04-25 18:05 | 25.65474 | -100.01178 | 7203 ft | 285 kts | 266° |
| 2026-04-25 18:06 | 25.65610 | -100.03365 | 7891 ft | 286 kts | 281° |
| 2026-04-25 18:06 | 25.66061 | -100.05516 | 8604 ft | 288 kts | 284° |
| 2026-04-25 18:06 | 25.66558 | -100.07682 | 8913 ft | 290 kts | 284° |
| 2026-04-25 18:06 | 25.67057 | -100.09852 | 8985 ft | 290 kts | 284° |
| 2026-04-25 18:07 | 25.67452 | -100.12037 | 8994 ft | 289 kts | 277° |
| 2026-04-25 18:07 | 25.67648 | -100.14252 | 8995 ft | 289 kts | 274° |
| 2026-04-25 18:07 | 25.67885 | -100.16457 | 8994 ft | 288 kts | 283° |
| 2026-04-25 18:07 | 25.68565 | -100.18562 | 9400 ft | 291 kts | 293° |
| 2026-04-25 18:08 | 25.69386 | -100.20596 | 10099 ft | 293 kts | 294° |
| 2026-04-25 18:08 | 25.70265 | -100.22720 | 10316 ft | 313 kts | 294° |
| 2026-04-25 18:08 | 25.71217 | -100.24985 | 10456 ft | 333 kts | 294° |
| 2026-04-25 18:08 | 25.72218 | -100.27349 | 10861 ft | 341 kts | 294° |
| 2026-04-25 18:09 | 25.73237 | -100.29751 | 11437 ft | 344 kts | 294° |
| 2026-04-25 18:09 | 25.74247 | -100.32128 | 12037 ft | 346 kts | 294° |
| 2026-04-25 18:09 | 25.75275 | -100.34553 | 12630 ft | 349 kts | 294° |
| 2026-04-25 18:09 | 25.75622 | -100.35375 | 12838 ft | 349 kts | 294° |
| 2026-04-25 18:10 | 25.77001 | -100.38651 | 13655 ft | 352 kts | 293° |
| 2026-04-25 18:10 | 25.78373 | -100.41920 | 14375 ft | 354 kts | 293° |
| 2026-04-25 18:10 | 25.79502 | -100.44352 | 14919 ft | 356 kts | 301° |
| 2026-04-25 18:10 | 25.80996 | -100.46567 | 15486 ft | 359 kts | 306° |
| 2026-04-25 18:11 | 25.82550 | -100.48737 | 16052 ft | 360 kts | 306° |
| 2026-04-25 18:11 | 25.84110 | -100.50918 | 16623 ft | 360 kts | 306° |
| 2026-04-25 18:11 | 25.85667 | -100.53103 | 17186 ft | 361 kts | 306° |
| 2026-04-25 18:11 | 25.87225 | -100.55294 | 17708 ft | 362 kts | 306° |
| 2026-04-25 18:12 | 25.88794 | -100.57500 | 18180 ft | 364 kts | 306° |
| 2026-04-25 18:12 | 25.90345 | -100.59683 | 18639 ft | 365 kts | 306° |
| 2026-04-25 18:12 | 25.91921 | -100.61902 | 19128 ft | 366 kts | 306° |
| 2026-04-25 18:12 | 25.93501 | -100.64127 | 19602 ft | 367 kts | 306° |
| 2026-04-25 18:13 | 25.95085 | -100.66361 | 20100 ft | 368 kts | 306° |
| 2026-04-25 18:13 | 25.96677 | -100.68607 | 20579 ft | 370 kts | 306° |
| 2026-04-25 18:13 | 25.98272 | -100.70859 | 21053 ft | 371 kts | 306° |
| 2026-04-25 18:14 | 26.01480 | -100.75393 | 21970 ft | 374 kts | 306° |
| 2026-04-25 18:14 | 26.03091 | -100.77670 | 22433 ft | 375 kts | 306° |
| 2026-04-25 18:14 | 26.04688 | -100.79933 | 22876 ft | 377 kts | 306° |
| 2026-04-25 18:14 | 26.06307 | -100.82227 | 23343 ft | 378 kts | 306° |
| 2026-04-25 18:15 | 26.07940 | -100.84537 | 23725 ft | 380 kts | 306° |
| 2026-04-25 18:15 | 26.09580 | -100.86857 | 24097 ft | 381 kts | 305° |
| 2026-04-25 18:15 | 26.11224 | -100.89183 | 24462 ft | 383 kts | 305° |
| 2026-04-25 18:15 | 26.12872 | -100.91520 | 24829 ft | 385 kts | 305° |
| 2026-04-25 18:16 | 26.14530 | -100.93873 | 25195 ft | 387 kts | 305° |
| 2026-04-25 18:16 | 26.16198 | -100.96237 | 25574 ft | 389 kts | 305° |
| 2026-04-25 18:16 | 26.19560 | -101.01007 | 26300 ft | 392 kts | 305° |
| 2026-04-25 18:17 | 26.21249 | -101.03410 | 26644 ft | 394 kts | 304° |
| 2026-04-25 18:17 | 26.22860 | -101.05829 | 26984 ft | 394 kts | 299° |
| 2026-04-25 18:17 | 26.24119 | -101.08528 | 27309 ft | 393 kts | 290° |
| 2026-04-25 18:17 | 26.25038 | -101.11395 | 27640 ft | 394 kts | 288° |
| 2026-04-25 18:18 | 26.25944 | -101.14289 | 28004 ft | 395 kts | 288° |
| 2026-04-25 18:18 | 26.26857 | -101.17185 | 28349 ft | 397 kts | 288° |
| 2026-04-25 18:18 | 26.27776 | -101.20091 | 28671 ft | 398 kts | 288° |
| 2026-04-25 18:18 | 26.28701 | -101.23014 | 28892 ft | 400 kts | 288° |
| 2026-04-25 18:19 | 26.29628 | -101.25939 | 29296 ft | 400 kts | 288° |
| 2026-04-25 18:19 | 26.30548 | -101.28850 | 29885 ft | 396 kts | 288° |
| 2026-04-25 18:19 | 26.31448 | -101.31701 | 30345 ft | 393 kts | 288° |
| 2026-04-25 18:19 | 26.32354 | -101.34574 | 30766 ft | 392 kts | 287° |
| 2026-04-25 18:20 | 26.33257 | -101.37438 | 31184 ft | 391 kts | 288° |
| 2026-04-25 18:20 | 26.34154 | -101.40291 | 31598 ft | 389 kts | 288° |
| 2026-04-25 18:20 | 26.35048 | -101.43142 | 32005 ft | 388 kts | 288° |
| 2026-04-25 18:20 | 26.35938 | -101.45983 | 32411 ft | 386 kts | 288° |
| 2026-04-25 18:21 | 26.36825 | -101.48811 | 32802 ft | 385 kts | 288° |
| 2026-04-25 18:21 | 26.37694 | -101.51588 | 33219 ft | 384 kts | 287° |
| 2026-04-25 18:21 | 26.38572 | -101.54400 | 33606 ft | 383 kts | 287° |
| 2026-04-25 18:21 | 26.39444 | -101.57203 | 33828 ft | 383 kts | 287° |
| 2026-04-25 18:22 | 26.40322 | -101.60027 | 33861 ft | 387 kts | 287° |
| 2026-04-25 18:22 | 26.42098 | -101.65720 | 33857 ft | 389 kts | 288° |
| 2026-04-25 18:23 | 26.43877 | -101.71422 | 33856 ft | 388 kts | 288° |
| 2026-04-25 18:23 | 26.45642 | -101.77072 | 33856 ft | 388 kts | 287° |
| 2026-04-25 18:24 | 26.47408 | -101.82770 | 33866 ft | 388 kts | 287° |
| 2026-04-25 18:24 | 26.48872 | -101.87516 | 33859 ft | 389 kts | 287° |
| 2026-04-25 18:25 | 26.50636 | -101.93230 | 33864 ft | 389 kts | 287° |
| 2026-04-25 18:25 | 26.52407 | -101.98942 | 33853 ft | 388 kts | 287° |
| 2026-04-25 18:26 | 26.54167 | -102.04642 | 33869 ft | 389 kts | 287° |
| 2026-04-25 18:26 | 26.55926 | -102.10354 | 33865 ft | 389 kts | 287° |
| 2026-04-25 18:27 | 26.57671 | -102.16036 | 33862 ft | 389 kts | 287° |
| 2026-04-25 18:27 | 26.59422 | -102.21757 | 33861 ft | 389 kts | 287° |
| 2026-04-25 18:28 | 26.61178 | -102.27484 | 33861 ft | 389 kts | 287° |
| 2026-04-25 18:28 | 26.62938 | -102.33205 | 33857 ft | 389 kts | 287° |
| 2026-04-25 18:29 | 26.65556 | -102.41790 | 33858 ft | 389 kts | 287° |
| 2026-04-25 18:30 | 26.69038 | -102.53211 | 33858 ft | 389 kts | 287° |
| 2026-04-25 18:30 | 26.70776 | -102.58942 | 33862 ft | 389 kts | 287° |
| 2026-04-25 18:31 | 26.72510 | -102.64683 | 33864 ft | 389 kts | 287° |
| 2026-04-25 18:31 | 26.74249 | -102.70429 | 33861 ft | 390 kts | 287° |
| 2026-04-25 18:32 | 26.75994 | -102.76176 | 33863 ft | 390 kts | 287° |
| 2026-04-25 18:32 | 26.77733 | -102.81934 | 33863 ft | 391 kts | 287° |
| 2026-04-25 18:33 | 26.79472 | -102.87697 | 33868 ft | 391 kts | 287° |
| 2026-04-25 18:33 | 26.81193 | -102.93433 | 33866 ft | 391 kts | 287° |
| 2026-04-25 18:34 | 26.82923 | -102.99210 | 33869 ft | 391 kts | 287° |
| 2026-04-25 18:34 | 26.84654 | -103.04994 | 33865 ft | 391 kts | 287° |
| 2026-04-25 18:35 | 26.86390 | -103.10763 | 33867 ft | 391 kts | 287° |
| 2026-04-25 18:35 | 26.88119 | -103.16547 | 33858 ft | 392 kts | 287° |
| 2026-04-25 18:36 | 26.89839 | -103.22308 | 33856 ft | 392 kts | 287° |
| 2026-04-25 18:36 | 26.91561 | -103.28106 | 33860 ft | 392 kts | 287° |
| 2026-04-25 18:37 | 26.93280 | -103.33903 | 33860 ft | 392 kts | 287° |
| 2026-04-25 18:37 | 26.95004 | -103.39706 | 33861 ft | 392 kts | 287° |
| 2026-04-25 18:38 | 26.96727 | -103.45498 | 33862 ft | 392 kts | 287° |
| 2026-04-25 18:38 | 26.98441 | -103.51292 | 33857 ft | 392 kts | 287° |
| 2026-04-25 18:39 | 27.00151 | -103.57097 | 33859 ft | 392 kts | 287° |
| 2026-04-25 18:39 | 27.01861 | -103.62895 | 33853 ft | 392 kts | 287° |
| 2026-04-25 18:40 | 27.03564 | -103.68653 | 33851 ft | 391 kts | 287° |
| 2026-04-25 18:40 | 27.05272 | -103.74451 | 33854 ft | 391 kts | 287° |
| 2026-04-25 18:41 | 27.06973 | -103.80257 | 33854 ft | 391 kts | 287° |
| 2026-04-25 18:41 | 27.08661 | -103.86060 | 33861 ft | 391 kts | 287° |
| 2026-04-25 18:42 | 27.10069 | -103.90882 | 33860 ft | 391 kts | 287° |
| 2026-04-25 18:42 | 27.12045 | -103.97631 | 33868 ft | 391 kts | 287° |
| 2026-04-25 18:43 | 27.13742 | -104.03448 | 33869 ft | 392 kts | 287° |
| 2026-04-25 18:43 | 27.15436 | -104.09261 | 33872 ft | 391 kts | 287° |
| 2026-04-25 18:44 | 27.17114 | -104.15039 | 33875 ft | 391 kts | 287° |
| 2026-04-25 18:44 | 27.18792 | -104.20848 | 33879 ft | 390 kts | 287° |
| 2026-04-25 18:45 | 27.20471 | -104.26652 | 33880 ft | 389 kts | 287° |
| 2026-04-25 18:45 | 27.22135 | -104.32412 | 33875 ft | 389 kts | 287° |
| 2026-04-25 18:46 | 27.23806 | -104.38204 | 33874 ft | 389 kts | 286° |
| 2026-04-25 18:46 | 27.25475 | -104.44002 | 33880 ft | 389 kts | 286° |
| 2026-04-25 18:47 | 27.27135 | -104.49789 | 33878 ft | 389 kts | 286° |
| 2026-04-25 18:47 | 27.28795 | -104.55581 | 33879 ft | 389 kts | 287° |
| 2026-04-25 18:48 | 27.30445 | -104.61334 | 33880 ft | 389 kts | 286° |
| 2026-04-25 18:48 | 27.32104 | -104.67117 | 33877 ft | 388 kts | 286° |
| 2026-04-25 18:49 | 27.33761 | -104.72902 | 33876 ft | 389 kts | 286° |
| 2026-04-25 18:49 | 27.35413 | -104.78697 | 33872 ft | 388 kts | 286° |
| 2026-04-25 18:50 | 27.37059 | -104.84492 | 33873 ft | 388 kts | 286° |
| 2026-04-25 18:50 | 27.38692 | -104.90246 | 33865 ft | 388 kts | 286° |
| 2026-04-25 18:51 | 27.40067 | -104.95104 | 33862 ft | 388 kts | 285° |
| 2026-04-25 18:51 | 27.41970 | -105.01837 | 33863 ft | 388 kts | 285° |
| 2026-04-25 18:52 | 27.43607 | -105.07632 | 33864 ft | 388 kts | 285° |
| 2026-04-25 18:52 | 27.45232 | -105.13385 | 33867 ft | 388 kts | 285° |
| 2026-04-25 18:53 | 27.46857 | -105.19175 | 33864 ft | 387 kts | 285° |
| 2026-04-25 18:53 | 27.48477 | -105.24967 | 33865 ft | 387 kts | 285° |
| 2026-04-25 18:54 | 27.50907 | -105.33626 | 33863 ft | 386 kts | 285° |
| 2026-04-25 18:55 | 27.52516 | -105.39361 | 33868 ft | 386 kts | 285° |
| 2026-04-25 18:55 | 27.54129 | -105.45131 | 33868 ft | 386 kts | 285° |
| 2026-04-25 18:56 | 27.55729 | -105.50888 | 33865 ft | 385 kts | 285° |
| 2026-04-25 18:56 | 27.57329 | -105.56655 | 33868 ft | 385 kts | 285° |
| 2026-04-25 18:57 | 27.58929 | -105.62412 | 33872 ft | 385 kts | 285° |
| 2026-04-25 18:57 | 27.60587 | -105.68153 | 33874 ft | 385 kts | 285° |
| 2026-04-25 18:58 | 27.62270 | -105.73871 | 33872 ft | 384 kts | 285° |
| 2026-04-25 18:58 | 27.64772 | -105.82444 | 33853 ft | 383 kts | 285° |
| 2026-04-25 18:59 | 27.68073 | -105.93861 | 33859 ft | 384 kts | 285° |
| 2026-04-25 19:00 | 27.70566 | -106.02471 | 33864 ft | 384 kts | 285° |
| 2026-04-25 19:01 | 27.73045 | -106.11094 | 33863 ft | 385 kts | 285° |
| 2026-04-25 19:01 | 27.74678 | -106.16811 | 33862 ft | 385 kts | 285° |
| 2026-04-25 19:02 | 27.77148 | -106.25432 | 33868 ft | 385 kts | 285° |
| 2026-04-25 19:03 | 27.79072 | -106.32160 | 33871 ft | 385 kts | 285° |
| 2026-04-25 19:03 | 27.81264 | -106.39823 | 33863 ft | 385 kts | 285° |
| 2026-04-25 19:04 | 27.83724 | -106.48484 | 33870 ft | 385 kts | 285° |
| 2026-04-25 19:05 | 27.86987 | -106.60005 | 33873 ft | 386 kts | 285° |
| 2026-04-25 19:06 | 27.88622 | -106.65787 | 33887 ft | 386 kts | 285° |
| 2026-04-25 19:06 | 27.91077 | -106.74478 | 33886 ft | 387 kts | 285° |
| 2026-04-25 19:07 | 27.93538 | -106.83186 | 33897 ft | 388 kts | 285° |
| 2026-04-25 19:08 | 27.95979 | -106.91873 | 33908 ft | 388 kts | 285° |
| 2026-04-25 19:09 | 27.98692 | -107.01593 | 33913 ft | 388 kts | 285° |
| 2026-04-25 19:10 | 28.01670 | -107.12281 | 33942 ft | 389 kts | 284° |
| 2026-04-25 19:10 | 28.03027 | -107.17152 | 33936 ft | 389 kts | 284° |
| 2026-04-25 19:11 | 28.04653 | -107.23001 | 33942 ft | 390 kts | 284° |
| 2026-04-25 19:11 | 28.06281 | -107.28865 | 33953 ft | 390 kts | 284° |
| 2026-04-25 19:12 | 28.07910 | -107.34724 | 33971 ft | 390 kts | 284° |
| 2026-04-25 19:12 | 28.09520 | -107.40560 | 33967 ft | 390 kts | 284° |
| 2026-04-25 19:13 | 28.11141 | -107.46430 | 33987 ft | 390 kts | 284° |
| 2026-04-25 19:13 | 28.12758 | -107.52301 | 33989 ft | 390 kts | 284° |
| 2026-04-25 19:14 | 28.14366 | -107.58157 | 33984 ft | 388 kts | 284° |
| 2026-04-25 19:14 | 28.15982 | -107.64008 | 33981 ft | 390 kts | 287° |
| 2026-04-25 19:15 | 28.18156 | -107.69625 | 33984 ft | 391 kts | 290° |
| 2026-04-25 19:15 | 28.20380 | -107.75256 | 33993 ft | 391 kts | 290° |
| 2026-04-25 19:16 | 28.22589 | -107.80903 | 33985 ft | 391 kts | 290° |
| 2026-04-25 19:16 | 28.24790 | -107.86543 | 34001 ft | 391 kts | 290° |
| 2026-04-25 19:17 | 28.26994 | -107.92190 | 33996 ft | 391 kts | 290° |
| 2026-04-25 19:17 | 28.29186 | -107.97798 | 34008 ft | 391 kts | 290° |
| 2026-04-25 19:18 | 28.31384 | -108.03439 | 34004 ft | 391 kts | 290° |
| 2026-04-25 19:18 | 28.33577 | -108.09075 | 34009 ft | 390 kts | 290° |
| 2026-04-25 19:19 | 28.35767 | -108.14718 | 34002 ft | 390 kts | 290° |
| 2026-04-25 19:19 | 28.37951 | -108.20345 | 34007 ft | 389 kts | 290° |
| 2026-04-25 19:20 | 28.40121 | -108.25941 | 34004 ft | 389 kts | 290° |
| 2026-04-25 19:20 | 28.42305 | -108.31576 | 34005 ft | 389 kts | 290° |
| 2026-04-25 19:21 | 28.44475 | -108.37198 | 34003 ft | 389 kts | 289° |
| 2026-04-25 19:21 | 28.47726 | -108.45640 | 33992 ft | 388 kts | 289° |
| 2026-04-25 19:22 | 28.49888 | -108.51263 | 33983 ft | 388 kts | 290° |
| 2026-04-25 19:23 | 28.53115 | -108.59679 | 33980 ft | 388 kts | 289° |
| 2026-04-25 19:23 | 28.56348 | -108.68099 | 33978 ft | 387 kts | 289° |
| 2026-04-25 19:24 | 28.58506 | -108.73722 | 33973 ft | 387 kts | 289° |
| 2026-04-25 19:25 | 28.62778 | -108.84929 | 33966 ft | 386 kts | 289° |
| 2026-04-25 19:25 | 28.64914 | -108.90547 | 33715 ft | 385 kts | 289° |
| 2026-04-25 19:26 | 28.65979 | -108.93341 | 33453 ft | 384 kts | 289° |
| 2026-04-25 19:26 | 28.67044 | -108.96133 | 33181 ft | 383 kts | 289° |
| 2026-04-25 19:26 | 28.68102 | -108.98910 | 32921 ft | 382 kts | 289° |
| 2026-04-25 19:26 | 28.69153 | -109.01679 | 32677 ft | 380 kts | 289° |
| 2026-04-25 19:27 | 28.70200 | -109.04441 | 32418 ft | 379 kts | 289° |
| 2026-04-25 19:27 | 28.70891 | -109.06269 | 32250 ft | 379 kts | 289° |
| 2026-04-25 19:27 | 28.72282 | -109.09944 | 31916 ft | 377 kts | 288° |
| 2026-04-25 19:27 | 28.73321 | -109.12690 | 31664 ft | 376 kts | 288° |
| 2026-04-25 19:28 | 28.74357 | -109.15421 | 31424 ft | 375 kts | 288° |
| 2026-04-25 19:28 | 28.75387 | -109.18146 | 31180 ft | 374 kts | 288° |
| 2026-04-25 19:28 | 28.76415 | -109.20867 | 30924 ft | 369 kts | 288° |
| 2026-04-25 19:28 | 28.77418 | -109.23520 | 30530 ft | 362 kts | 288° |
| 2026-04-25 19:29 | 28.78405 | -109.26138 | 30096 ft | 357 kts | 288° |
| 2026-04-25 19:29 | 28.79383 | -109.28733 | 29647 ft | 353 kts | 287° |
| 2026-04-25 19:29 | 28.80334 | -109.31250 | 29252 ft | 349 kts | 288° |
| 2026-04-25 19:29 | 28.81288 | -109.33782 | 28850 ft | 346 kts | 288° |
| 2026-04-25 19:30 | 28.82231 | -109.36298 | 28457 ft | 343 kts | 287° |
| 2026-04-25 19:30 | 28.83167 | -109.38793 | 28077 ft | 341 kts | 287° |
| 2026-04-25 19:30 | 28.84098 | -109.41278 | 27692 ft | 338 kts | 288° |
| 2026-04-25 19:30 | 28.85020 | -109.43734 | 27324 ft | 336 kts | 288° |
| 2026-04-25 19:31 | 28.85934 | -109.46171 | 26953 ft | 332 kts | 288° |
| 2026-04-25 19:31 | 28.86840 | -109.48588 | 26598 ft | 329 kts | 288° |
| 2026-04-25 19:31 | 28.87736 | -109.50974 | 26254 ft | 325 kts | 288° |
| 2026-04-25 19:31 | 28.88622 | -109.53343 | 25911 ft | 323 kts | 288° |
| 2026-04-25 19:32 | 28.89499 | -109.55693 | 25564 ft | 321 kts | 288° |
| 2026-04-25 19:32 | 28.90370 | -109.58026 | 25228 ft | 318 kts | 288° |
| 2026-04-25 19:32 | 28.91237 | -109.60345 | 24885 ft | 316 kts | 288° |
| 2026-04-25 19:32 | 28.91808 | -109.61871 | 24662 ft | 315 kts | 288° |
| 2026-04-25 19:33 | 28.92955 | -109.64932 | 24208 ft | 313 kts | 289° |
| 2026-04-25 19:33 | 28.93809 | -109.67211 | 23865 ft | 312 kts | 289° |
| 2026-04-25 19:33 | 28.94649 | -109.69464 | 23519 ft | 312 kts | 289° |
| 2026-04-25 19:33 | 28.95497 | -109.71742 | 23118 ft | 311 kts | 289° |
| 2026-04-25 19:34 | 28.96339 | -109.74002 | 22769 ft | 308 kts | 288° |
| 2026-04-25 19:34 | 28.97177 | -109.76250 | 22400 ft | 306 kts | 288° |
| 2026-04-25 19:34 | 28.98004 | -109.78477 | 22047 ft | 303 kts | 289° |
| 2026-04-25 19:34 | 28.98822 | -109.80687 | 21689 ft | 301 kts | 289° |
| 2026-04-25 19:35 | 28.99636 | -109.82882 | 21320 ft | 299 kts | 289° |
| 2026-04-25 19:35 | 29.00449 | -109.85070 | 20962 ft | 298 kts | 289° |
| 2026-04-25 19:35 | 29.00722 | -109.85802 | 20843 ft | 297 kts | 289° |